createdAt,value
2023-05-14T00:01:56.317Z,11.20
2023-05-14T00:04:24.718Z,11.10
2023-05-14T00:06:53.095Z,9.80
2023-05-14T00:09:21.440Z,10.10
2023-05-14T00:11:49.862Z,11.00
2023-05-14T00:14:18.259Z,9.40
2023-05-14T00:16:46.815Z,9.90
2023-05-14T00:19:15.191Z,11.10
2023-05-14T00:21:43.556Z,11.60
2023-05-14T00:24:12.017Z,10.00
2023-05-14T00:26:40.513Z,10.10
2023-05-14T00:29:08.890Z,10.80
2023-05-14T00:31:37.301Z,11.60
2023-05-14T00:34:06.220Z,9.50
2023-05-14T00:36:34.579Z,10.90
2023-05-14T00:39:03.780Z,9.70
2023-05-14T00:41:32.180Z,9.70
2023-05-14T00:44:00.588Z,9.10
2023-05-14T00:46:29.153Z,9.10
2023-05-14T00:48:58.751Z,8.90
2023-05-14T00:51:27.332Z,9.00
2023-05-14T00:53:55.861Z,7.90
2023-05-14T00:56:24.917Z,7.40
2023-05-14T00:58:53.347Z,7.70
2023-05-14T01:01:21.992Z,7.40
2023-05-14T01:03:53.450Z,8.30
2023-05-14T01:06:52.004Z,8.70
2023-05-14T01:09:32.611Z,7.90
2023-05-14T01:12:15.301Z,8.00
2023-05-14T01:15:01.295Z,8.60
2023-05-14T01:17:33.192Z,7.90
2023-05-14T01:20:02.423Z,9.00
2023-05-14T01:22:30.765Z,8.60
2023-05-14T01:24:59.337Z,7.70
2023-05-14T01:28:05.626Z,8.30
2023-05-14T01:31:17.911Z,7.90
2023-05-14T01:33:49.356Z,8.20
2023-05-14T01:36:18.212Z,7.60
2023-05-14T01:38:49.446Z,7.70
2023-05-14T01:41:19.429Z,8.70
2023-05-14T01:43:48.026Z,8.40
2023-05-14T01:46:19.733Z,7.40
2023-05-14T01:48:48.208Z,8.10
2023-05-14T01:51:16.871Z,8.10
2023-05-14T01:53:45.349Z,7.80
2023-05-14T01:56:13.749Z,8.80
2023-05-14T01:58:42.115Z,8.10
2023-05-14T02:01:10.571Z,8.20
2023-05-14T02:03:38.954Z,8.90
2023-05-14T02:06:07.534Z,8.60
2023-05-14T02:08:35.886Z,9.50
2023-05-14T02:11:04.331Z,9.80
2023-05-14T02:13:32.717Z,8.20
2023-05-14T02:16:01.077Z,9.50
2023-05-14T02:18:29.506Z,10.00
2023-05-14T02:20:57.926Z,9.40
2023-05-14T02:23:37.903Z,10.40
2023-05-14T02:26:11.352Z,9.00
2023-05-14T02:28:39.878Z,8.40
2023-05-14T02:31:08.311Z,8.00
2023-05-14T02:33:36.949Z,9.40
2023-05-14T02:36:05.709Z,8.80
2023-05-14T02:38:34.136Z,8.20
2023-05-14T02:41:02.672Z,8.80
2023-05-14T02:43:31.143Z,8.00
2023-05-14T02:45:59.602Z,8.20
2023-05-14T02:48:28.057Z,7.30
2023-05-14T02:50:56.413Z,8.10
2023-05-14T02:53:24.834Z,9.30
2023-05-14T02:55:53.193Z,9.00
2023-05-14T02:58:25.760Z,8.80
2023-05-14T03:00:57.045Z,9.70
2023-05-14T03:03:25.981Z,8.50
2023-05-14T03:05:54.532Z,9.90
2023-05-14T03:08:23.222Z,9.70
2023-05-14T03:10:51.599Z,9.60
2023-05-14T03:13:20.819Z,9.30
2023-05-14T03:15:49.475Z,10.30
2023-05-14T03:18:17.896Z,10.20
2023-05-14T03:20:46.387Z,11.60
2023-05-14T03:23:15.248Z,10.10
2023-05-14T03:25:43.580Z,9.70
2023-05-14T03:28:12.040Z,10.60
2023-05-14T03:30:40.430Z,9.70
2023-05-14T03:33:08.908Z,10.30
2023-05-14T03:35:37.262Z,10.50
2023-05-14T03:38:05.863Z,10.80
2023-05-14T03:40:34.305Z,12.90
2023-05-14T03:43:02.680Z,11.80
2023-05-14T03:45:31.134Z,10.10
2023-05-14T03:47:59.616Z,9.60
2023-05-14T03:50:28.273Z,9.40
2023-05-14T03:52:56.610Z,10.10
2023-05-14T03:55:25.044Z,11.00
2023-05-14T03:57:53.380Z,9.30
2023-05-14T04:00:22.002Z,9.80
2023-05-14T04:02:50.711Z,9.40
2023-05-14T04:05:19.235Z,9.80
2023-05-14T04:07:47.626Z,9.70
2023-05-14T04:10:15.964Z,9.30
2023-05-14T04:12:44.414Z,9.10
2023-05-14T04:15:12.792Z,8.90
2023-05-14T04:17:41.255Z,9.70
2023-05-14T04:20:10.289Z,8.60
2023-05-14T04:22:42.243Z,8.20
2023-05-14T04:25:10.790Z,8.00
2023-05-14T04:27:39.198Z,7.60
2023-05-14T04:30:08.606Z,9.10
2023-05-14T04:32:36.981Z,8.00
2023-05-14T04:35:07.262Z,9.00
2023-05-14T04:37:35.818Z,8.80
2023-05-14T04:40:08.214Z,8.70
2023-05-14T04:42:37.028Z,9.10
2023-05-14T04:45:07.131Z,8.40
2023-05-14T04:47:36.094Z,8.90
2023-05-14T04:50:05.259Z,8.90
2023-05-14T04:52:33.541Z,8.00
2023-05-14T04:55:02.031Z,8.70
2023-05-14T04:57:30.346Z,8.10
2023-05-14T04:59:58.660Z,8.20
2023-05-14T05:02:27.017Z,9.10
2023-05-14T05:04:55.417Z,8.40
2023-05-14T05:07:24.785Z,8.60
2023-05-14T05:09:53.131Z,9.80
2023-05-14T05:12:21.537Z,9.00
2023-05-14T05:14:49.838Z,8.90
2023-05-14T05:17:18.157Z,8.50
2023-05-14T05:19:46.667Z,8.80
2023-05-14T05:22:15.142Z,8.60
2023-05-14T05:24:43.652Z,8.30
2023-05-14T05:27:12.899Z,8.10
2023-05-14T05:29:41.264Z,7.90
2023-05-14T05:32:09.641Z,8.10
2023-05-14T05:34:38.002Z,7.10
2023-05-14T05:37:06.530Z,8.60
2023-05-14T05:39:35.212Z,8.20
2023-05-14T05:42:05.942Z,8.00
2023-05-14T05:44:34.599Z,7.80
2023-05-14T05:47:03.069Z,8.20
2023-05-14T05:49:31.769Z,7.50
2023-05-14T05:52:00.248Z,8.20
2023-05-14T05:54:28.529Z,7.30
2023-05-14T05:56:56.849Z,7.40
2023-05-14T05:59:25.626Z,7.60
2023-05-14T06:01:54.052Z,7.90
2023-05-14T06:04:22.475Z,8.80
2023-05-14T06:06:50.898Z,7.50
2023-05-14T06:09:19.300Z,6.90
2023-05-14T06:11:47.720Z,7.30
2023-05-14T06:14:16.026Z,8.00
2023-05-14T06:16:44.576Z,7.20
2023-05-14T06:19:12.953Z,7.00
2023-05-14T06:21:41.498Z,7.40
2023-05-14T06:24:10.288Z,7.70
2023-05-14T06:26:38.676Z,7.50
2023-05-14T06:29:07.181Z,8.50
2023-05-14T06:31:35.638Z,7.90
2023-05-14T06:34:04.030Z,8.00
2023-05-14T06:36:32.514Z,8.50
2023-05-14T06:41:32.661Z,6.80
2023-05-14T06:44:01.061Z,6.30
2023-05-14T06:46:29.393Z,9.40
2023-05-14T06:48:59.529Z,6.60
2023-05-14T06:51:28.180Z,6.70
2023-05-14T06:54:00.795Z,6.30
2023-05-14T06:56:32.025Z,6.60
2023-05-14T06:59:03.603Z,6.50
2023-05-14T07:01:32.911Z,6.80
2023-05-14T07:04:03.198Z,6.70
2023-05-14T07:06:32.646Z,5.60
2023-05-14T07:09:04.249Z,6.00
2023-05-14T07:11:33.742Z,5.40
2023-05-14T07:14:03.035Z,4.20
2023-05-14T07:16:40.424Z,4.30
2023-05-14T07:19:09.080Z,4.00
2023-05-14T07:21:37.965Z,4.30
2023-05-14T07:24:08.085Z,3.90
2023-05-14T07:26:36.555Z,3.60
2023-05-14T07:29:05.030Z,3.50
2023-05-14T07:31:34.080Z,3.50
2023-05-14T07:34:03.056Z,3.00
2023-05-14T07:36:32.106Z,2.70
2023-05-14T07:39:00.752Z,3.10
2023-05-14T07:41:29.229Z,3.00
2023-05-14T07:43:57.603Z,3.60
2023-05-14T07:46:26.289Z,3.30
2023-05-14T07:48:54.724Z,2.80
2023-05-14T07:51:24.082Z,3.60
2023-05-14T07:53:52.457Z,3.30
2023-05-14T07:56:24.118Z,2.80
2023-05-14T07:58:52.763Z,2.90
2023-05-14T08:01:23.039Z,2.90
2023-05-14T08:03:51.492Z,2.80
2023-05-14T08:06:21.900Z,3.20
2023-05-14T08:08:50.284Z,2.60
2023-05-14T08:11:18.857Z,2.90
2023-05-14T08:13:47.258Z,2.80
2023-05-14T08:16:15.748Z,3.10
2023-05-14T08:18:44.125Z,2.30
2023-05-14T08:21:12.601Z,2.60
2023-05-14T08:23:41.015Z,2.60
2023-05-14T08:26:09.499Z,2.60
2023-05-14T08:28:37.830Z,2.40
2023-05-14T08:31:06.534Z,2.50
2023-05-14T08:33:34.855Z,2.60
2023-05-14T08:36:03.649Z,2.70
2023-05-14T08:38:32.210Z,2.40
2023-05-14T08:41:00.640Z,3.20
2023-05-14T08:44:13.502Z,2.70
2023-05-14T08:46:42.265Z,2.60
2023-05-14T08:49:47.220Z,3.10
2023-05-14T08:52:18.180Z,2.40
2023-05-14T08:54:50.753Z,1.90
2023-05-14T08:57:25.823Z,2.30
2023-05-14T08:59:54.442Z,2.50
2023-05-14T09:02:30.158Z,1.80
2023-05-14T09:05:01.892Z,1.90
2023-05-14T09:07:30.314Z,2.30
2023-05-14T09:09:59.818Z,2.10
2023-05-14T09:12:28.517Z,1.80
2023-05-14T09:14:57.125Z,2.00
2023-05-14T09:17:27.909Z,1.90
2023-05-14T09:19:56.396Z,2.10
2023-05-14T09:22:24.806Z,2.10
2023-05-14T09:25:05.913Z,1.90
2023-05-14T09:27:35.512Z,1.90
2023-05-14T09:30:13.070Z,1.90
2023-05-14T09:32:44.548Z,1.50
2023-05-14T09:35:23.088Z,1.90
2023-05-14T09:37:54.126Z,2.10
2023-05-14T09:40:24.485Z,1.70
2023-05-14T09:42:53.382Z,2.50
2023-05-14T09:45:21.943Z,2.00
2023-05-14T09:47:50.482Z,1.60
2023-05-14T09:50:18.881Z,1.40
2023-05-14T09:52:47.817Z,1.90
2023-05-14T09:55:16.303Z,1.80
2023-05-14T09:57:45.104Z,2.30
2023-05-14T10:00:14.393Z,1.90
2023-05-14T10:02:45.855Z,1.80
2023-05-14T10:05:15.966Z,1.60
2023-05-14T10:07:49.528Z,1.90
2023-05-14T10:10:27.212Z,1.90
2023-05-14T10:13:05.757Z,2.00
2023-05-14T10:15:41.651Z,2.50
2023-05-14T10:18:16.220Z,1.70
2023-05-14T10:20:48.658Z,1.60
2023-05-14T10:23:17.775Z,2.40
2023-05-14T10:25:46.490Z,2.30
2023-05-14T10:28:15.020Z,1.80
2023-05-14T10:30:46.984Z,1.80
2023-05-14T10:33:51.060Z,2.10
2023-05-14T10:36:20.569Z,1.80
2023-05-14T10:38:57.086Z,2.10
2023-05-14T10:41:25.799Z,3.50
2023-05-14T10:43:57.484Z,2.20
2023-05-14T10:46:25.892Z,2.10
2023-05-14T10:48:54.236Z,2.00
2023-05-14T10:51:23.452Z,1.80
2023-05-14T10:53:52.570Z,2.00
2023-05-14T10:56:21.550Z,1.90
2023-05-14T10:58:50.044Z,2.00
2023-05-14T11:01:18.416Z,1.70
2023-05-14T11:03:47.148Z,2.40
2023-05-14T11:06:16.447Z,2.00
2023-05-14T11:08:46.450Z,2.90
2023-05-14T11:11:15.058Z,1.70
2023-05-14T11:13:44.682Z,1.90
2023-05-14T11:16:23.361Z,2.70
2023-05-14T11:19:03.967Z,2.20
2023-05-14T11:21:32.939Z,2.30
2023-05-14T11:24:01.682Z,2.30
2023-05-14T11:26:31.805Z,2.70
2023-05-14T11:29:00.181Z,3.10
2023-05-14T11:31:28.549Z,2.50
2023-05-14T11:33:56.981Z,2.20
2023-05-14T11:36:25.313Z,2.20
2023-05-14T11:38:53.634Z,2.20
2023-05-14T11:41:23.156Z,3.00
2023-05-14T11:43:52.535Z,2.80
2023-05-14T11:46:21.724Z,2.30
2023-05-14T11:48:50.749Z,2.60
2023-05-14T11:51:19.119Z,2.60
2023-05-14T11:53:47.562Z,3.20
2023-05-14T11:56:16.301Z,3.90
2023-05-14T11:58:49.186Z,3.10
2023-05-14T12:01:17.614Z,3.30
2023-05-14T12:03:46.149Z,2.80
2023-05-14T12:06:15.029Z,3.00
2023-05-14T12:08:43.329Z,3.10
2023-05-14T12:11:14.128Z,3.50
2023-05-14T12:13:42.417Z,2.60
2023-05-14T12:16:10.930Z,2.60
2023-05-14T12:18:39.330Z,2.40
2023-05-14T12:21:08.630Z,2.50
2023-05-14T12:23:38.898Z,2.80
2023-05-14T12:26:09.440Z,2.20
2023-05-14T12:28:43.359Z,2.60
2023-05-14T12:31:12.036Z,2.50
2023-05-14T12:33:40.534Z,3.10
2023-05-14T12:36:21.423Z,3.20
2023-05-14T12:38:56.883Z,2.80
2023-05-14T12:41:25.199Z,2.60
2023-05-14T12:43:53.728Z,3.00
2023-05-14T12:46:22.327Z,3.10
2023-05-14T12:48:53.186Z,3.30
2023-05-14T12:51:22.588Z,3.30
2023-05-14T12:53:52.194Z,3.70
2023-05-14T12:56:22.091Z,3.60
2023-05-14T12:58:50.483Z,3.40
2023-05-14T13:01:19.024Z,3.20
2023-05-14T13:03:47.608Z,3.00
2023-05-14T13:06:16.307Z,2.90
2023-05-14T13:08:44.834Z,4.00
2023-05-14T13:11:13.359Z,3.40
2023-05-14T13:13:41.688Z,4.20
2023-05-14T13:16:10.209Z,4.40
2023-05-14T13:18:38.551Z,3.70
2023-05-14T13:21:07.015Z,4.60
2023-05-14T13:23:35.709Z,5.20
2023-05-14T13:26:04.394Z,4.40
2023-05-14T13:28:32.789Z,4.50
2023-05-14T13:31:06.991Z,5.10
2023-05-14T13:33:43.994Z,4.80
2023-05-14T13:36:15.197Z,5.00
2023-05-14T13:38:45.846Z,4.50
2023-05-14T13:41:14.242Z,5.10
2023-05-14T13:43:42.589Z,4.60
2023-05-14T13:46:11.005Z,4.30
2023-05-14T13:48:39.420Z,4.90
2023-05-14T13:51:07.831Z,4.80
2023-05-14T13:53:36.404Z,5.20
2023-05-14T13:56:06.516Z,4.40
2023-05-14T13:58:34.977Z,4.60
2023-05-14T14:01:04.685Z,3.80
2023-05-14T14:03:34.183Z,3.60
2023-05-14T14:06:02.485Z,3.50
2023-05-14T14:08:31.239Z,3.30
2023-05-14T14:10:59.587Z,3.50
2023-05-14T14:13:29.463Z,3.60
2023-05-14T14:15:57.905Z,7.00
2023-05-14T14:18:26.871Z,4.00
2023-05-14T14:20:55.454Z,3.70
2023-05-14T14:23:23.940Z,4.30
2023-05-14T14:25:52.334Z,4.00
2023-05-14T14:28:20.774Z,4.80
2023-05-14T14:30:50.525Z,4.60
2023-05-14T14:33:18.858Z,5.30
2023-05-14T14:35:47.416Z,4.70
2023-05-14T14:38:15.855Z,5.00
2023-05-14T14:40:44.478Z,5.00
2023-05-14T14:43:12.996Z,5.60
2023-05-14T14:45:42.877Z,5.40
2023-05-14T14:48:37.305Z,5.00
2023-05-14T14:51:07.991Z,5.50
2023-05-14T14:53:37.205Z,5.40
2023-05-14T14:56:06.576Z,5.30
2023-05-14T14:58:35.008Z,5.30
2023-05-14T15:01:03.864Z,5.20
2023-05-14T15:03:32.554Z,5.60
2023-05-14T15:06:01.119Z,5.70
2023-05-14T15:08:29.497Z,5.60
2023-05-14T15:10:58.033Z,4.90
2023-05-14T15:13:29.325Z,5.40
2023-05-14T15:15:57.792Z,6.10
2023-05-14T15:18:26.507Z,5.50
2023-05-14T15:20:56.007Z,5.50
2023-05-14T15:23:24.608Z,5.80
2023-05-14T15:25:53.036Z,5.50
2023-05-14T15:28:21.396Z,5.30
2023-05-14T15:30:49.849Z,5.00
2023-05-14T15:33:19.376Z,5.60
2023-05-14T15:35:48.055Z,5.20
2023-05-14T15:38:16.526Z,5.50
2023-05-14T15:40:44.941Z,6.50
2023-05-14T15:43:13.340Z,7.40
2023-05-14T15:45:45.622Z,5.80
2023-05-14T15:48:14.102Z,5.50
2023-05-14T15:50:42.649Z,5.40
2023-05-14T15:53:10.979Z,5.10
2023-05-14T15:58:50.649Z,6.20
2023-05-14T16:01:19.783Z,5.50
2023-05-14T16:03:48.300Z,6.40
2023-05-14T16:06:17.155Z,6.40
2023-05-14T16:08:45.535Z,6.20
2023-05-14T16:11:13.900Z,6.40
2023-05-14T16:13:42.289Z,6.30
2023-05-14T16:16:10.845Z,6.30
2023-05-14T16:18:40.402Z,6.10
2023-05-14T16:21:08.922Z,5.90
2023-05-14T16:23:37.274Z,6.70
2023-05-14T16:26:06.522Z,6.80
2023-05-14T16:28:34.943Z,5.80
2023-05-14T16:31:03.842Z,5.50
2023-05-14T16:33:32.271Z,6.30
2023-05-14T16:36:00.690Z,6.10
2023-05-14T16:38:30.912Z,6.20
2023-05-14T16:40:59.276Z,5.80
2023-05-14T16:43:27.638Z,5.90
2023-05-14T16:45:56.027Z,7.00
2023-05-14T16:48:25.991Z,6.70
2023-05-14T16:50:56.049Z,6.70
2023-05-14T16:53:24.592Z,7.40
2023-05-14T16:55:53.080Z,6.10
2023-05-14T16:58:21.714Z,7.50
2023-05-14T17:00:50.116Z,5.90
2023-05-14T17:03:18.652Z,6.00
2023-05-14T17:05:49.784Z,6.90
2023-05-14T17:08:18.240Z,5.90
2023-05-14T17:10:46.782Z,8.20
2023-05-14T17:13:15.192Z,10.00
2023-05-14T17:16:02.076Z,9.50
2023-05-14T17:18:30.670Z,11.50
2023-05-14T17:20:59.257Z,10.50
2023-05-14T17:23:30.127Z,10.90
2023-05-14T17:25:58.645Z,8.10
2023-05-14T17:28:28.470Z,7.90
2023-05-14T17:30:57.421Z,7.90
2023-05-14T17:33:38.584Z,8.50
2023-05-14T17:36:40.940Z,8.50
2023-05-14T17:39:09.549Z,13.30
2023-05-14T17:41:38.031Z,11.20
2023-05-14T17:44:06.579Z,8.70
2023-05-14T17:46:36.702Z,11.10
2023-05-14T17:49:05.123Z,9.70
2023-05-14T17:51:33.628Z,9.60
2023-05-14T17:54:02.060Z,8.20
2023-05-14T17:56:30.461Z,8.70
2023-05-14T17:58:59.263Z,8.50
2023-05-14T18:01:31.894Z,8.80
2023-05-14T18:04:00.376Z,9.20
2023-05-14T18:06:28.808Z,9.00
2023-05-14T18:08:57.300Z,9.20
2023-05-14T18:11:26.556Z,9.50
2023-05-14T18:13:55.730Z,9.10
2023-05-14T18:16:24.469Z,10.10
2023-05-14T18:18:53.576Z,7.60
2023-05-14T18:21:22.873Z,7.40
2023-05-14T18:23:51.264Z,8.80
2023-05-14T18:26:19.942Z,8.10
2023-05-14T18:28:48.456Z,7.40
2023-05-14T18:31:16.838Z,7.50
2023-05-14T18:33:45.529Z,7.90
2023-05-14T18:36:14.091Z,7.80
2023-05-14T18:38:42.634Z,8.10
2023-05-14T18:41:11.337Z,7.70
2023-05-14T18:43:39.929Z,7.00
2023-05-14T18:46:09.113Z,7.10
2023-05-14T18:48:37.984Z,8.30
2023-05-14T18:51:06.394Z,7.90
2023-05-14T18:53:37.939Z,7.50
2023-05-14T18:56:06.748Z,7.30
2023-05-14T18:58:35.326Z,7.90
2023-05-14T19:01:03.712Z,7.20
2023-05-14T19:03:32.170Z,7.80
2023-05-14T19:06:00.739Z,6.80
2023-05-14T19:08:29.123Z,8.20
2023-05-14T19:10:57.500Z,7.80
2023-05-14T19:13:28.664Z,8.00
2023-05-14T19:15:57.105Z,5.40
2023-05-14T19:18:25.563Z,4.10
2023-05-14T19:20:53.979Z,5.10
2023-05-14T19:23:22.483Z,5.70
2023-05-14T19:25:50.976Z,5.70
2023-05-14T19:28:19.968Z,6.10
2023-05-14T19:30:50.862Z,4.80
2023-05-14T19:33:19.323Z,4.40
2023-05-14T19:35:47.723Z,4.60
2023-05-14T19:38:16.179Z,5.50
2023-05-14T19:40:45.195Z,6.10
2023-05-14T19:43:13.718Z,5.80
2023-05-14T19:45:42.791Z,6.20
2023-05-14T19:48:12.592Z,6.60
2023-05-14T19:50:41.652Z,7.20
2023-05-14T19:53:10.047Z,6.20
2023-05-14T19:55:38.502Z,6.50
2023-05-14T19:58:06.851Z,6.70
2023-05-14T20:00:37.069Z,6.90
2023-05-14T20:03:05.976Z,6.40
2023-05-14T20:05:35.289Z,7.20
2023-05-14T20:08:06.610Z,7.50
2023-05-14T20:10:35.051Z,7.60
2023-05-14T20:13:03.622Z,8.00
2023-05-14T20:15:31.981Z,8.10
2023-05-14T20:18:01.156Z,7.10
2023-05-14T20:20:32.866Z,7.00
2023-05-14T20:23:02.137Z,7.30
2023-05-14T20:25:32.806Z,7.90
2023-05-14T20:28:01.576Z,8.10
2023-05-14T20:30:30.106Z,8.20
2023-05-14T20:32:58.591Z,8.30
2023-05-14T20:35:29.957Z,8.10
2023-05-14T20:37:58.774Z,8.10
2023-05-14T20:40:27.501Z,7.80
2023-05-14T20:42:55.831Z,7.50
2023-05-14T20:45:24.287Z,8.40
2023-05-14T20:47:53.028Z,7.70
2023-05-14T20:50:22.662Z,8.10
2023-05-14T20:52:51.129Z,8.40
2023-05-14T20:55:19.835Z,9.00
2023-05-14T20:57:49.659Z,7.70
2023-05-14T21:00:18.799Z,8.20
2023-05-14T21:02:49.354Z,8.90
2023-05-14T21:05:18.089Z,8.50
2023-05-14T21:07:46.407Z,9.40
2023-05-14T21:10:14.843Z,8.90
2023-05-14T21:12:44.722Z,8.90
2023-05-14T21:15:13.282Z,9.80
2023-05-14T21:17:43.875Z,11.00
2023-05-14T21:20:13.585Z,10.80
2023-05-14T21:22:41.886Z,12.60
2023-05-14T21:25:11.111Z,11.70
2023-05-14T21:27:39.499Z,12.30
2023-05-14T21:30:08.833Z,12.60
2023-05-14T21:32:37.234Z,13.80
2023-05-14T21:35:06.134Z,14.10
2023-05-14T21:37:34.524Z,15.40
2023-05-14T21:40:02.893Z,13.30
2023-05-14T21:42:31.214Z,13.70
2023-05-14T21:44:59.628Z,14.00
2023-05-14T21:47:28.203Z,13.50
2023-05-14T21:49:56.653Z,14.00
2023-05-14T21:52:25.155Z,12.90
2023-05-14T21:54:53.537Z,12.20
2023-05-14T21:57:22.655Z,14.00
2023-05-14T21:59:50.970Z,14.10
2023-05-14T22:02:19.504Z,13.70
2023-05-14T22:04:47.902Z,14.00
2023-05-14T22:07:19.445Z,13.50
2023-05-14T22:09:48.147Z,14.40
2023-05-14T22:12:16.535Z,13.80
2023-05-14T22:14:46.304Z,15.20
2023-05-14T22:17:14.750Z,13.30
2023-05-14T22:19:43.075Z,14.10
2023-05-14T22:22:11.485Z,13.90
2023-05-14T22:24:39.845Z,14.50
2023-05-14T22:27:08.304Z,14.50
2023-05-14T22:29:38.154Z,14.70
2023-05-14T22:32:08.193Z,14.60
2023-05-14T22:34:37.450Z,14.40
2023-05-14T22:37:06.043Z,16.40
2023-05-14T22:39:34.861Z,14.50
2023-05-14T22:42:03.367Z,15.50
2023-05-14T22:44:31.709Z,15.00
2023-05-14T22:47:00.084Z,15.20
2023-05-14T22:49:28.554Z,16.20
2023-05-14T22:51:56.905Z,14.80
2023-05-14T22:54:25.343Z,15.30
2023-05-14T22:56:54.207Z,15.80
2023-05-14T22:59:23.685Z,15.20
2023-05-14T23:01:52.545Z,16.00
2023-05-14T23:04:21.059Z,17.00
2023-05-14T23:06:49.764Z,15.30
2023-05-14T23:09:18.126Z,15.70
2023-05-14T23:11:46.700Z,16.60
2023-05-14T23:14:15.328Z,16.70
2023-05-14T23:16:44.326Z,16.40
2023-05-14T23:19:13.049Z,15.70
2023-05-14T23:21:41.535Z,16.50
2023-05-14T23:24:10.011Z,15.40
2023-05-14T23:26:38.577Z,15.30
2023-05-14T23:29:07.115Z,16.00
2023-05-14T23:31:36.647Z,15.20
2023-05-14T23:34:05.150Z,16.50
2023-05-14T23:36:33.992Z,15.90
2023-05-14T23:39:02.392Z,17.40
2023-05-14T23:41:30.916Z,16.80
2023-05-14T23:43:59.224Z,17.00
2023-05-14T23:46:27.970Z,18.20
2023-05-14T23:48:57.138Z,16.70
2023-05-14T23:51:27.537Z,15.50
2023-05-14T23:53:58.506Z,16.10
2023-05-14T23:56:29.354Z,15.90
2023-05-14T23:58:57.782Z,17.00
